sensor_id;sensor_type;location;lat;lon;timestamp;pressure;altitude;pressure_sealevel;temperature;humidity
13124;BME280;6627;50.920;12.050;2022-10-16T00:01:40;98832.75;;;20.06;77.95
13124;BME280;6627;50.920;12.050;2022-10-16T00:04:08;98821.56;;;20.18;77.15
13124;BME280;6627;50.920;12.050;2022-10-16T00:06:37;98816.84;;;20.38;75.98
13124;BME280;6627;50.920;12.050;2022-10-16T00:09:06;98826.16;;;20.72;75.15
13124;BME280;6627;50.920;12.050;2022-10-16T00:11:37;98788.50;;;19.95;75.04
13124;BME280;6627;50.920;12.050;2022-10-16T00:14:10;98799.03;;;19.38;79.23
13124;BME280;6627;50.920;12.050;2022-10-16T00:16:41;98793.50;;;19.89;78.59
13124;BME280;6627;50.920;12.050;2022-10-16T00:19:10;98787.22;;;19.54;81.15
13124;BME280;6627;50.920;12.050;2022-10-16T00:21:38;98822.88;;;20.24;79.64
13124;BME280;6627;50.920;12.050;2022-10-16T00:24:09;98828.09;;;20.49;77.67
13124;BME280;6627;50.920;12.050;2022-10-16T00:26:38;98810.69;;;20.45;75.63
13124;BME280;6627;50.920;12.050;2022-10-16T00:29:08;98830.13;;;20.32;76.42
13124;BME280;6627;50.920;12.050;2022-10-16T00:31:36;98823.03;;;19.93;77.07
13124;BME280;6627;50.920;12.050;2022-10-16T00:34:03;98826.41;;;20.05;76.92
13124;BME280;6627;50.920;12.050;2022-10-16T00:36:31;98839.81;;;20.07;77.58
13124;BME280;6627;50.920;12.050;2022-10-16T00:38:59;98842.44;;;20.19;77.29
13124;BME280;6627;50.920;12.050;2022-10-16T00:41:27;98831.44;;;20.19;76.89
13124;BME280;6627;50.920;12.050;2022-10-16T00:43:57;98808.53;;;19.76;77.69
13124;BME280;6627;50.920;12.050;2022-10-16T00:46:37;98810.72;;;19.67;78.38
13124;BME280;6627;50.920;12.050;2022-10-16T00:49:09;98811.47;;;19.83;78.50
13124;BME280;6627;50.920;12.050;2022-10-16T00:51:40;98794.56;;;19.65;77.70
13124;BME280;6627;50.920;12.050;2022-10-16T00:54:12;98801.22;;;19.64;79.19
13124;BME280;6627;50.920;12.050;2022-10-16T00:56:42;98796.09;;;19.82;78.39
13124;BME280;6627;50.920;12.050;2022-10-16T00:59:16;98780.34;;;19.79;77.91
13124;BME280;6627;50.920;12.050;2022-10-16T01:01:46;98783.41;;;19.58;79.10
13124;BME280;6627;50.920;12.050;2022-10-16T01:04:14;98777.22;;;19.61;78.65
13124;BME280;6627;50.920;12.050;2022-10-16T01:06:51;98795.69;;;20.19;77.46
13124;BME280;6627;50.920;12.050;2022-10-16T01:09:30;98790.16;;;19.61;77.80
13124;BME280;6627;50.920;12.050;2022-10-16T01:12:09;98808.25;;;19.62;78.69
13124;BME280;6627;50.920;12.050;2022-10-16T01:14:44;98796.88;;;19.48;78.87
13124;BME280;6627;50.920;12.050;2022-10-16T01:17:22;98794.03;;;19.60;79.33
13124;BME280;6627;50.920;12.050;2022-10-16T01:20:08;98810.13;;;19.77;78.55
13124;BME280;6627;50.920;12.050;2022-10-16T01:22:50;98803.25;;;19.52;79.24
13124;BME280;6627;50.920;12.050;2022-10-16T01:25:30;98800.19;;;19.53;80.32
13124;BME280;6627;50.920;12.050;2022-10-16T01:28:11;98808.63;;;19.80;79.21
13124;BME280;6627;50.920;12.050;2022-10-16T01:30:42;98805.00;;;19.60;79.54
13124;BME280;6627;50.920;12.050;2022-10-16T01:33:18;98791.91;;;19.18;80.70
13124;BME280;6627;50.920;12.050;2022-10-16T01:35:52;98802.25;;;19.40;80.90
13124;BME280;6627;50.920;12.050;2022-10-16T01:38:26;98802.94;;;19.53;80.45
13124;BME280;6627;50.920;12.050;2022-10-16T01:41:01;98788.44;;;19.21;81.20
13124;BME280;6627;50.920;12.050;2022-10-16T01:43:38;98806.28;;;19.47;81.41
13124;BME280;6627;50.920;12.050;2022-10-16T01:46:09;98799.50;;;19.25;81.72
13124;BME280;6627;50.920;12.050;2022-10-16T01:48:38;98791.88;;;19.34;81.16
13124;BME280;6627;50.920;12.050;2022-10-16T01:51:13;98788.63;;;19.28;81.50
13124;BME280;6627;50.920;12.050;2022-10-16T01:53:48;98787.84;;;19.63;81.03
13124;BME280;6627;50.920;12.050;2022-10-16T01:56:18;98786.78;;;19.52;79.84
13124;BME280;6627;50.920;12.050;2022-10-16T01:58:54;98789.81;;;19.47;79.54
13124;BME280;6627;50.920;12.050;2022-10-16T02:01:24;98808.72;;;19.16;81.36
13124;BME280;6627;50.920;12.050;2022-10-16T02:03:58;98775.28;;;19.11;80.72
13124;BME280;6627;50.920;12.050;2022-10-16T02:06:29;98800.94;;;19.19;81.99
13124;BME280;6627;50.920;12.050;2022-10-16T02:08:56;98797.72;;;19.48;81.48
13124;BME280;6627;50.920;12.050;2022-10-16T02:11:24;98798.50;;;19.49;80.98
13124;BME280;6627;50.920;12.050;2022-10-16T02:13:59;98792.00;;;19.22;81.56
13124;BME280;6627;50.920;12.050;2022-10-16T02:16:34;98795.53;;;19.22;82.28
13124;BME280;6627;50.920;12.050;2022-10-16T02:19:02;98796.56;;;19.33;81.91
13124;BME280;6627;50.920;12.050;2022-10-16T02:21:39;98806.84;;;19.36;81.61
13124;BME280;6627;50.920;12.050;2022-10-16T02:24:14;98813.84;;;19.34;82.04
13124;BME280;6627;50.920;12.050;2022-10-16T02:26:52;98800.16;;;19.18;82.00
13124;BME280;6627;50.920;12.050;2022-10-16T02:29:27;98811.22;;;18.90;82.30
13124;BME280;6627;50.920;12.050;2022-10-16T02:32:01;98813.38;;;19.12;82.60
13124;BME280;6627;50.920;12.050;2022-10-16T02:34:32;98805.47;;;18.79;83.63
13124;BME280;6627;50.920;12.050;2022-10-16T02:37:03;98789.03;;;18.79;82.95
13124;BME280;6627;50.920;12.050;2022-10-16T02:39:33;98809.78;;;19.44;81.96
13124;BME280;6627;50.920;12.050;2022-10-16T02:42:01;98803.81;;;19.41;81.64
13124;BME280;6627;50.920;12.050;2022-10-16T02:44:30;98803.69;;;19.03;80.77
13124;BME280;6627;50.920;12.050;2022-10-16T02:46:58;98798.56;;;18.85;82.05
13124;BME280;6627;50.920;12.050;2022-10-16T02:49:25;98812.16;;;18.66;82.93
13124;BME280;6627;50.920;12.050;2022-10-16T02:51:52;98821.25;;;18.82;83.53
13124;BME280;6627;50.920;12.050;2022-10-16T02:54:19;98803.78;;;18.75;83.69
13124;BME280;6627;50.920;12.050;2022-10-16T02:56:47;98775.81;;;17.69;87.49
13124;BME280;6627;50.920;12.050;2022-10-16T02:59:14;98780.38;;;17.65;90.82
13124;BME280;6627;50.920;12.050;2022-10-16T03:01:42;98785.41;;;17.75;92.04
13124;BME280;6627;50.920;12.050;2022-10-16T03:04:10;98778.28;;;17.86;92.45
13124;BME280;6627;50.920;12.050;2022-10-16T03:06:37;98762.56;;;17.71;92.88
13124;BME280;6627;50.920;12.050;2022-10-16T03:09:05;98757.81;;;17.56;94.33
13124;BME280;6627;50.920;12.050;2022-10-16T03:11:32;98762.47;;;17.68;95.09
13124;BME280;6627;50.920;12.050;2022-10-16T03:13:59;98759.63;;;17.52;95.72
13124;BME280;6627;50.920;12.050;2022-10-16T03:16:27;98759.63;;;17.76;95.50
13124;BME280;6627;50.920;12.050;2022-10-16T03:18:55;98756.13;;;17.39;96.63
13124;BME280;6627;50.920;12.050;2022-10-16T03:21:22;98756.66;;;17.57;96.69
13124;BME280;6627;50.920;12.050;2022-10-16T03:23:50;98754.63;;;17.54;97.23
13124;BME280;6627;50.920;12.050;2022-10-16T03:26:17;98746.81;;;17.80;96.73
13124;BME280;6627;50.920;12.050;2022-10-16T03:28:44;98732.38;;;17.55;97.30
13124;BME280;6627;50.920;12.050;2022-10-16T03:31:11;98744.00;;;17.93;96.44
13124;BME280;6627;50.920;12.050;2022-10-16T03:33:39;98754.31;;;17.83;96.19
13124;BME280;6627;50.920;12.050;2022-10-16T03:36:07;98753.00;;;17.65;97.25
13124;BME280;6627;50.920;12.050;2022-10-16T03:38:35;98761.81;;;17.99;96.44
13124;BME280;6627;50.920;12.050;2022-10-16T03:41:02;98760.88;;;18.07;94.68
13124;BME280;6627;50.920;12.050;2022-10-16T03:43:30;98765.09;;;18.64;91.75
13124;BME280;6627;50.920;12.050;2022-10-16T03:45:57;98786.25;;;19.11;88.26
13124;BME280;6627;50.920;12.050;2022-10-16T03:48:24;98785.09;;;19.12;85.87
13124;BME280;6627;50.920;12.050;2022-10-16T03:50:51;98812.16;;;18.66;88.30
13124;BME280;6627;50.920;12.050;2022-10-16T03:53:20;98803.50;;;18.20;88.16
13124;BME280;6627;50.920;12.050;2022-10-16T03:55:47;98822.59;;;17.88;90.29
13124;BME280;6627;50.920;12.050;2022-10-16T03:58:15;98824.44;;;17.72;92.01
13124;BME280;6627;50.920;12.050;2022-10-16T04:00:44;98817.72;;;18.54;90.24
13124;BME280;6627;50.920;12.050;2022-10-16T04:03:12;98824.41;;;19.16;86.21
13124;BME280;6627;50.920;12.050;2022-10-16T04:05:39;98834.34;;;19.05;85.92
13124;BME280;6627;50.920;12.050;2022-10-16T04:08:06;98843.72;;;19.35;83.63
13124;BME280;6627;50.920;12.050;2022-10-16T04:10:35;98841.97;;;18.96;83.50
13124;BME280;6627;50.920;12.050;2022-10-16T04:13:02;98867.03;;;19.10;84.16
13124;BME280;6627;50.920;12.050;2022-10-16T04:15:29;98878.69;;;19.70;82.02
13124;BME280;6627;50.920;12.050;2022-10-16T04:17:56;98884.56;;;19.53;80.64
13124;BME280;6627;50.920;12.050;2022-10-16T04:20:24;98885.97;;;19.31;80.78
13124;BME280;6627;50.920;12.050;2022-10-16T04:22:51;98896.97;;;19.98;79.00
13124;BME280;6627;50.920;12.050;2022-10-16T04:25:18;98887.22;;;19.02;79.45
13124;BME280;6627;50.920;12.050;2022-10-16T04:27:47;98917.75;;;19.16;81.01
13124;BME280;6627;50.920;12.050;2022-10-16T04:30:14;98913.66;;;18.78;82.08
13124;BME280;6627;50.920;12.050;2022-10-16T04:32:42;98910.59;;;18.96;83.00
13124;BME280;6627;50.920;12.050;2022-10-16T04:35:09;98913.69;;;19.41;80.05
13124;BME280;6627;50.920;12.050;2022-10-16T04:37:36;98906.78;;;19.16;80.13
13124;BME280;6627;50.920;12.050;2022-10-16T04:40:05;98919.72;;;19.00;80.61
13124;BME280;6627;50.920;12.050;2022-10-16T04:42:32;98917.81;;;18.88;81.67
13124;BME280;6627;50.920;12.050;2022-10-16T04:45:01;98883.28;;;18.59;81.52
13124;BME280;6627;50.920;12.050;2022-10-16T04:47:29;98894.09;;;18.52;83.29
13124;BME280;6627;50.920;12.050;2022-10-16T04:49:56;98886.19;;;18.22;83.11
13124;BME280;6627;50.920;12.050;2022-10-16T04:52:23;98895.84;;;18.04;84.98
13124;BME280;6627;50.920;12.050;2022-10-16T04:54:52;98893.81;;;18.69;82.46
13124;BME280;6627;50.920;12.050;2022-10-16T04:57:19;98896.88;;;17.99;84.97
13124;BME280;6627;50.920;12.050;2022-10-16T04:59:47;98897.91;;;17.70;86.71
13124;BME280;6627;50.920;12.050;2022-10-16T05:02:15;98896.13;;;17.62;88.56
13124;BME280;6627;50.920;12.050;2022-10-16T05:04:43;98896.78;;;17.34;90.58
13124;BME280;6627;50.920;12.050;2022-10-16T05:07:10;98893.59;;;17.57;91.73
13124;BME280;6627;50.920;12.050;2022-10-16T05:09:37;98880.56;;;17.66;92.67
13124;BME280;6627;50.920;12.050;2022-10-16T05:12:04;98881.47;;;17.95;92.24
13124;BME280;6627;50.920;12.050;2022-10-16T05:14:32;98871.91;;;17.88;92.19
13124;BME280;6627;50.920;12.050;2022-10-16T05:17:00;98862.91;;;17.63;93.54
13124;BME280;6627;50.920;12.050;2022-10-16T05:19:28;98877.84;;;17.90;94.20
13124;BME280;6627;50.920;12.050;2022-10-16T05:21:56;98861.63;;;17.61;94.88
13124;BME280;6627;50.920;12.050;2022-10-16T05:24:23;98895.00;;;19.00;90.29
13124;BME280;6627;50.920;12.050;2022-10-16T05:26:50;98884.38;;;18.98;88.11
13124;BME280;6627;50.920;12.050;2022-10-16T05:29:18;98886.78;;;19.31;84.72
13124;BME280;6627;50.920;12.050;2022-10-16T05:31:46;98896.97;;;19.31;84.05
13124;BME280;6627;50.920;12.050;2022-10-16T05:34:13;98900.84;;;19.30;83.08
13124;BME280;6627;50.920;12.050;2022-10-16T05:36:42;98927.09;;;19.27;83.42
13124;BME280;6627;50.920;12.050;2022-10-16T05:39:11;98939.16;;;19.70;81.93
13124;BME280;6627;50.920;12.050;2022-10-16T05:41:38;98940.00;;;19.42;81.78
13124;BME280;6627;50.920;12.050;2022-10-16T05:44:06;98953.66;;;19.55;80.54
13124;BME280;6627;50.920;12.050;2022-10-16T05:46:33;98944.72;;;19.26;79.56
13124;BME280;6627;50.920;12.050;2022-10-16T05:49:01;98991.94;;;19.48;80.81
13124;BME280;6627;50.920;12.050;2022-10-16T05:51:28;98982.53;;;19.17;81.19
13124;BME280;6627;50.920;12.050;2022-10-16T05:53:57;98997.78;;;19.30;81.82
13124;BME280;6627;50.920;12.050;2022-10-16T05:56:24;98983.34;;;19.33;80.58
13124;BME280;6627;50.920;12.050;2022-10-16T05:58:51;98990.84;;;19.21;81.51
13124;BME280;6627;50.920;12.050;2022-10-16T06:01:19;99007.09;;;19.41;81.85
13124;BME280;6627;50.920;12.050;2022-10-16T06:03:50;98996.72;;;19.35;80.27
13124;BME280;6627;50.920;12.050;2022-10-16T06:06:20;99000.75;;;19.85;78.16
13124;BME280;6627;50.920;12.050;2022-10-16T06:08:49;98988.63;;;19.70;77.53
13124;BME280;6627;50.920;12.050;2022-10-16T06:11:22;99005.50;;;19.40;79.38
13124;BME280;6627;50.920;12.050;2022-10-16T06:13:50;99017.03;;;19.02;81.11
13124;BME280;6627;50.920;12.050;2022-10-16T06:16:18;99030.41;;;19.48;80.83
13124;BME280;6627;50.920;12.050;2022-10-16T06:18:46;99026.06;;;19.47;80.62
13124;BME280;6627;50.920;12.050;2022-10-16T06:21:17;99032.34;;;19.47;79.88
13124;BME280;6627;50.920;12.050;2022-10-16T06:23:45;99031.06;;;19.57;79.74
13124;BME280;6627;50.920;12.050;2022-10-16T06:26:15;99031.69;;;19.22;80.14
13124;BME280;6627;50.920;12.050;2022-10-16T06:28:44;99066.22;;;19.51;81.41
13124;BME280;6627;50.920;12.050;2022-10-16T06:31:12;99067.00;;;19.52;81.63
13124;BME280;6627;50.920;12.050;2022-10-16T06:33:40;99061.50;;;19.80;80.91
13124;BME280;6627;50.920;12.050;2022-10-16T06:36:09;99070.63;;;20.00;81.18
13124;BME280;6627;50.920;12.050;2022-10-16T06:38:38;99062.00;;;19.70;81.48
13124;BME280;6627;50.920;12.050;2022-10-16T06:41:07;99060.72;;;19.51;81.12
13124;BME280;6627;50.920;12.050;2022-10-16T06:43:36;99078.63;;;19.17;84.29
13124;BME280;6627;50.920;12.050;2022-10-16T06:46:07;99074.88;;;19.37;85.81
13124;BME280;6627;50.920;12.050;2022-10-16T06:48:35;99064.22;;;19.64;85.53
13124;BME280;6627;50.920;12.050;2022-10-16T06:51:04;99058.19;;;19.74;84.42
13124;BME280;6627;50.920;12.050;2022-10-16T06:53:34;99063.88;;;19.81;85.46
13124;BME280;6627;50.920;12.050;2022-10-16T06:56:08;99064.81;;;20.36;82.93
13124;BME280;6627;50.920;12.050;2022-10-16T06:58:35;99063.31;;;20.55;81.05
13124;BME280;6627;50.920;12.050;2022-10-16T07:01:04;99057.28;;;20.33;80.29
13124;BME280;6627;50.920;12.050;2022-10-16T07:03:32;99083.84;;;20.96;80.10
13124;BME280;6627;50.920;12.050;2022-10-16T07:06:02;99088.25;;;21.01;77.21
13124;BME280;6627;50.920;12.050;2022-10-16T07:08:31;99091.13;;;20.69;77.53
13124;BME280;6627;50.920;12.050;2022-10-16T07:11:00;99096.38;;;20.94;77.27
13124;BME280;6627;50.920;12.050;2022-10-16T07:13:28;99099.81;;;20.71;77.47
13124;BME280;6627;50.920;12.050;2022-10-16T07:15:56;99120.09;;;20.63;79.27
13124;BME280;6627;50.920;12.050;2022-10-16T07:18:24;99119.25;;;20.78;78.96
13124;BME280;6627;50.920;12.050;2022-10-16T07:21:04;99125.44;;;20.56;80.41
13124;BME280;6627;50.920;12.050;2022-10-16T07:23:31;99117.28;;;20.79;79.03
13124;BME280;6627;50.920;12.050;2022-10-16T07:25:58;99108.84;;;20.87;77.85
13124;BME280;6627;50.920;12.050;2022-10-16T07:28:26;99114.16;;;20.80;77.69
13124;BME280;6627;50.920;12.050;2022-10-16T07:30:53;99123.69;;;20.83;77.62
13124;BME280;6627;50.920;12.050;2022-10-16T07:33:21;99125.69;;;21.40;74.50
13124;BME280;6627;50.920;12.050;2022-10-16T07:35:51;99120.13;;;20.82;75.53
13124;BME280;6627;50.920;12.050;2022-10-16T07:38:20;99148.84;;;21.20;75.97
13124;BME280;6627;50.920;12.050;2022-10-16T07:40:55;99114.16;;;20.80;75.09
13124;BME280;6627;50.920;12.050;2022-10-16T07:43:22;99154.25;;;20.78;77.72
13124;BME280;6627;50.920;12.050;2022-10-16T07:45:50;99157.72;;;21.29;75.71
13124;BME280;6627;50.920;12.050;2022-10-16T07:48:19;99149.22;;;20.99;76.42
13124;BME280;6627;50.920;12.050;2022-10-16T07:50:47;99153.59;;;20.84;77.63
13124;BME280;6627;50.920;12.050;2022-10-16T07:53:16;99153.34;;;21.09;76.37
13124;BME280;6627;50.920;12.050;2022-10-16T07:55:43;99147.78;;;21.25;75.73
13124;BME280;6627;50.920;12.050;2022-10-16T07:58:10;99162.09;;;21.50;75.75
13124;BME280;6627;50.920;12.050;2022-10-16T08:00:38;99163.63;;;21.47;74.63
13124;BME280;6627;50.920;12.050;2022-10-16T08:03:05;99195.00;;;22.01;74.91
13124;BME280;6627;50.920;12.050;2022-10-16T08:05:33;99180.59;;;22.11;73.59
13124;BME280;6627;50.920;12.050;2022-10-16T08:08:01;99149.56;;;21.52;73.18
13124;BME280;6627;50.920;12.050;2022-10-16T08:10:30;99164.72;;;21.62;73.95
13124;BME280;6627;50.920;12.050;2022-10-16T08:12:58;99179.00;;;22.10;73.03
13124;BME280;6627;50.920;12.050;2022-10-16T08:15:25;99152.75;;;21.54;73.77
13124;BME280;6627;50.920;12.050;2022-10-16T08:17:58;99153.25;;;21.40;74.23
13124;BME280;6627;50.920;12.050;2022-10-16T08:20:27;99158.47;;;21.65;72.88
13124;BME280;6627;50.920;12.050;2022-10-16T08:22:55;99168.56;;;21.57;73.91
13124;BME280;6627;50.920;12.050;2022-10-16T08:25:23;99171.81;;;21.63;73.32
13124;BME280;6627;50.920;12.050;2022-10-16T08:27:52;99180.69;;;22.14;72.04
13124;BME280;6627;50.920;12.050;2022-10-16T08:30:22;99162.19;;;21.96;71.24
13124;BME280;6627;50.920;12.050;2022-10-16T08:32:50;99185.25;;;22.07;71.44
13124;BME280;6627;50.920;12.050;2022-10-16T08:35:17;99178.53;;;21.85;71.65
13124;BME280;6627;50.920;12.050;2022-10-16T08:37:45;99172.63;;;22.06;71.20
13124;BME280;6627;50.920;12.050;2022-10-16T08:40:18;99174.81;;;21.97;70.93
13124;BME280;6627;50.920;12.050;2022-10-16T08:43:04;99200.25;;;22.29;70.70
13124;BME280;6627;50.920;12.050;2022-10-16T08:46:03;99197.88;;;22.27;70.06
13124;BME280;6627;50.920;12.050;2022-10-16T08:48:43;99216.38;;;22.50;70.45
13124;BME280;6627;50.920;12.050;2022-10-16T08:51:19;99202.16;;;22.25;70.80
13124;BME280;6627;50.920;12.050;2022-10-16T08:53:54;99205.84;;;22.32;70.24
13124;BME280;6627;50.920;12.050;2022-10-16T08:56:23;99187.38;;;21.94;71.43
13124;BME280;6627;50.920;12.050;2022-10-16T08:58:53;99200.53;;;21.81;74.44
13124;BME280;6627;50.920;12.050;2022-10-16T09:01:23;99214.13;;;22.32;74.00
13124;BME280;6627;50.920;12.050;2022-10-16T09:04:08;99183.44;;;22.37;71.17
13124;BME280;6627;50.920;12.050;2022-10-16T09:06:50;99186.25;;;22.64;69.94
13124;BME280;6627;50.920;12.050;2022-10-16T09:09:49;99215.78;;;22.86;69.21
13124;BME280;6627;50.920;12.050;2022-10-16T09:12:28;99230.63;;;23.01;68.07
13124;BME280;6627;50.920;12.050;2022-10-16T09:15:11;99253.38;;;22.68;69.75
13124;BME280;6627;50.920;12.050;2022-10-16T09:17:52;99258.63;;;23.00;68.36
13124;BME280;6627;50.920;12.050;2022-10-16T09:20:33;99262.06;;;23.16;68.20
13124;BME280;6627;50.920;12.050;2022-10-16T09:23:19;99245.56;;;23.23;66.41
13124;BME280;6627;50.920;12.050;2022-10-16T09:25:50;99204.97;;;22.51;67.21
13124;BME280;6627;50.920;12.050;2022-10-16T09:28:18;99226.91;;;22.90;67.22
13124;BME280;6627;50.920;12.050;2022-10-16T09:30:47;99228.72;;;23.05;66.71
13124;BME280;6627;50.920;12.050;2022-10-16T09:33:19;99208.34;;;22.64;67.13
13124;BME280;6627;50.920;12.050;2022-10-16T09:35:51;99216.69;;;22.45;68.79
13124;BME280;6627;50.920;12.050;2022-10-16T09:38:26;99213.72;;;22.57;68.82
13124;BME280;6627;50.920;12.050;2022-10-16T09:40:56;99221.31;;;22.86;67.92
13124;BME280;6627;50.920;12.050;2022-10-16T09:43:30;99251.09;;;23.23;68.41
13124;BME280;6627;50.920;12.050;2022-10-16T09:46:05;99225.00;;;22.94;67.67
13124;BME280;6627;50.920;12.050;2022-10-16T09:48:38;99236.00;;;23.17;66.80
13124;BME280;6627;50.920;12.050;2022-10-16T09:51:19;99279.53;;;23.54;66.85
13124;BME280;6627;50.920;12.050;2022-10-16T09:53:47;99226.53;;;22.69;66.79
13124;BME280;6627;50.920;12.050;2022-10-16T09:56:23;99238.13;;;23.01;66.51
13124;BME280;6627;50.920;12.050;2022-10-16T09:58:52;99242.25;;;23.14;65.75
13124;BME280;6627;50.920;12.050;2022-10-16T10:01:26;99247.56;;;23.26;65.88
13124;BME280;6627;50.920;12.050;2022-10-16T10:03:58;99225.47;;;23.00;65.24
13124;BME280;6627;50.920;12.050;2022-10-16T10:06:31;99222.31;;;22.98;65.01
13124;BME280;6627;50.920;12.050;2022-10-16T10:09:06;99213.44;;;22.88;64.87
13124;BME280;6627;50.920;12.050;2022-10-16T10:11:53;99262.56;;;23.52;64.89
13124;BME280;6627;50.920;12.050;2022-10-16T10:14:25;99248.22;;;23.42;65.09
13124;BME280;6627;50.920;12.050;2022-10-16T10:17:15;99204.94;;;23.27;63.93
13124;BME280;6627;50.920;12.050;2022-10-16T10:19:49;99237.06;;;23.65;63.68
13124;BME280;6627;50.920;12.050;2022-10-16T10:22:28;99201.66;;;23.18;63.79
13124;BME280;6627;50.920;12.050;2022-10-16T10:25:19;99216.63;;;23.44;63.27
13124;BME280;6627;50.920;12.050;2022-10-16T10:28:10;99209.34;;;23.32;63.40
13124;BME280;6627;50.920;12.050;2022-10-16T10:30:49;99230.16;;;23.52;63.18
13124;BME280;6627;50.920;12.050;2022-10-16T10:33:30;99218.38;;;23.59;62.32
13124;BME280;6627;50.920;12.050;2022-10-16T10:36:14;99237.25;;;23.80;62.35
13124;BME280;6627;50.920;12.050;2022-10-16T10:38:50;99222.31;;;23.58;62.71
13124;BME280;6627;50.920;12.050;2022-10-16T10:41:53;99195.63;;;23.39;62.55
13124;BME280;6627;50.920;12.050;2022-10-16T10:44:49;99211.31;;;23.61;62.12
13124;BME280;6627;50.920;12.050;2022-10-16T10:47:35;99218.63;;;23.77;62.13
13124;BME280;6627;50.920;12.050;2022-10-16T10:50:21;99232.84;;;23.75;62.49
13124;BME280;6627;50.920;12.050;2022-10-16T10:53:06;99222.84;;;24.01;61.85
13124;BME280;6627;50.920;12.050;2022-10-16T10:55:43;99234.56;;;24.24;61.23
13124;BME280;6627;50.920;12.050;2022-10-16T10:58:57;99207.00;;;23.98;61.26
13124;BME280;6627;50.920;12.050;2022-10-16T11:01:39;99217.97;;;23.90;61.56
13124;BME280;6627;50.920;12.050;2022-10-16T11:04:42;99228.13;;;24.13;61.48
13124;BME280;6627;50.920;12.050;2022-10-16T11:07:21;99238.25;;;24.35;61.28
13124;BME280;6627;50.920;12.050;2022-10-16T11:09:56;99195.69;;;23.76;61.30
13124;BME280;6627;50.920;12.050;2022-10-16T11:12:29;99179.03;;;23.69;61.17
13124;BME280;6627;50.920;12.050;2022-10-16T11:15:07;99204.00;;;24.13;60.44
13124;BME280;6627;50.920;12.050;2022-10-16T11:17:41;99196.78;;;24.02;60.48
13124;BME280;6627;50.920;12.050;2022-10-16T11:20:18;99220.38;;;24.29;60.31
13124;BME280;6627;50.920;12.050;2022-10-16T11:22:53;99207.72;;;24.28;59.95
13124;BME280;6627;50.920;12.050;2022-10-16T11:25:27;99249.66;;;24.71;59.90
13124;BME280;6627;50.920;12.050;2022-10-16T11:28:01;99229.81;;;24.62;59.42
13124;BME280;6627;50.920;12.050;2022-10-16T11:30:38;99193.75;;;24.14;60.04
13124;BME280;6627;50.920;12.050;2022-10-16T11:33:25;99197.69;;;24.13;60.02
13124;BME280;6627;50.920;12.050;2022-10-16T11:36:06;99212.88;;;24.33;59.68
13124;BME280;6627;50.920;12.050;2022-10-16T11:38:47;99201.66;;;24.15;59.57
13124;BME280;6627;50.920;12.050;2022-10-16T11:41:26;99189.88;;;24.22;58.88
13124;BME280;6627;50.920;12.050;2022-10-16T11:44:12;99187.31;;;24.06;59.15
13124;BME280;6627;50.920;12.050;2022-10-16T11:46:52;99195.81;;;24.24;58.70
13124;BME280;6627;50.920;12.050;2022-10-16T11:49:26;99192.16;;;24.13;59.17
13124;BME280;6627;50.920;12.050;2022-10-16T11:52:07;99190.53;;;24.12;59.10
13124;BME280;6627;50.920;12.050;2022-10-16T11:54:47;99200.50;;;24.20;58.73
13124;BME280;6627;50.920;12.050;2022-10-16T11:57:23;99214.19;;;24.39;58.79
13124;BME280;6627;50.920;12.050;2022-10-16T11:59:55;99175.31;;;23.91;59.29
13124;BME280;6627;50.920;12.050;2022-10-16T12:02:44;99233.91;;;24.82;58.08
13124;BME280;6627;50.920;12.050;2022-10-16T12:05:25;99196.56;;;24.21;58.60
13124;BME280;6627;50.920;12.050;2022-10-16T12:08:06;99215.53;;;24.60;58.31
13124;BME280;6627;50.920;12.050;2022-10-16T12:10:41;99202.25;;;24.35;58.65
13124;BME280;6627;50.920;12.050;2022-10-16T12:13:31;99225.09;;;24.70;58.46
13124;BME280;6627;50.920;12.050;2022-10-16T12:16:22;99218.97;;;24.46;58.92
13124;BME280;6627;50.920;12.050;2022-10-16T12:19:13;99247.28;;;24.73;59.18
13124;BME280;6627;50.920;12.050;2022-10-16T12:21:43;99223.22;;;24.36;59.47
13124;BME280;6627;50.920;12.050;2022-10-16T12:24:29;99259.31;;;24.91;59.02
13124;BME280;6627;50.920;12.050;2022-10-16T12:27:00;99200.22;;;24.32;59.20
13124;BME280;6627;50.920;12.050;2022-10-16T12:29:36;99216.75;;;24.25;59.59
13124;BME280;6627;50.920;12.050;2022-10-16T12:32:24;99260.13;;;24.96;59.23
13124;BME280;6627;50.920;12.050;2022-10-16T12:34:54;99221.81;;;24.57;59.08
13124;BME280;6627;50.920;12.050;2022-10-16T12:37:26;99254.50;;;24.81;59.22
13124;BME280;6627;50.920;12.050;2022-10-16T12:39:56;99229.81;;;24.62;59.09
13124;BME280;6627;50.920;12.050;2022-10-16T12:42:33;99229.81;;;24.62;59.29
13124;BME280;6627;50.920;12.050;2022-10-16T12:45:22;99248.41;;;24.65;59.51
13124;BME280;6627;50.920;12.050;2022-10-16T12:47:53;99283.47;;;25.42;57.99
13124;BME280;6627;50.920;12.050;2022-10-16T12:50:32;99221.34;;;24.48;59.15
13124;BME280;6627;50.920;12.050;2022-10-16T12:53:01;99256.34;;;24.66;59.62
13124;BME280;6627;50.920;12.050;2022-10-16T12:55:43;99264.06;;;24.91;59.50
13124;BME280;6627;50.920;12.050;2022-10-16T12:58:57;99248.03;;;24.66;59.45
13124;BME280;6627;50.920;12.050;2022-10-16T13:01:41;99260.91;;;24.92;59.17
13124;BME280;6627;50.920;12.050;2022-10-16T13:04:43;99253.75;;;24.91;59.11
13124;BME280;6627;50.920;12.050;2022-10-16T13:07:33;99255.97;;;25.16;58.39
13124;BME280;6627;50.920;12.050;2022-10-16T13:10:16;99194.72;;;24.36;58.78
13124;BME280;6627;50.920;12.050;2022-10-16T13:13:14;99258.94;;;24.97;59.04
13124;BME280;6627;50.920;12.050;2022-10-16T13:16:08;99223.91;;;24.67;58.86
13124;BME280;6627;50.920;12.050;2022-10-16T13:18:52;99231.50;;;24.77;58.70
13124;BME280;6627;50.920;12.050;2022-10-16T13:21:38;99231.41;;;24.66;59.24
13124;BME280;6627;50.920;12.050;2022-10-16T13:24:27;99194.69;;;24.32;59.04
13124;BME280;6627;50.920;12.050;2022-10-16T13:27:09;99245.44;;;24.91;58.40
13124;BME280;6627;50.920;12.050;2022-10-16T13:29:42;99229.53;;;24.81;57.94
13124;BME280;6627;50.920;12.050;2022-10-16T13:32:14;99233.91;;;24.82;58.10